createdAt,value
2019-02-21T00:00:24.813Z,28.97
2019-02-21T00:03:23.241Z,24.77
2019-02-21T00:06:14.252Z,30.37
2019-02-21T00:08:53.541Z,33.97
2019-02-21T00:11:43.972Z,32.73
2019-02-21T00:14:31.410Z,26.73
2019-02-21T00:17:16.348Z,30.23
2019-02-21T00:19:56.428Z,29.60
2019-02-21T00:22:32.947Z,26.37
2019-02-21T00:25:13.396Z,27.93
2019-02-21T00:30:35.423Z,34.77
2019-02-21T00:33:05.590Z,28.47
2019-02-21T00:35:35.758Z,27.53
2019-02-21T00:38:05.631Z,28.63
2019-02-21T00:40:35.518Z,30.70
2019-02-21T00:43:05.534Z,29.53
2019-02-21T00:45:35.909Z,25.70
2019-02-21T00:48:06.531Z,29.83
2019-02-21T00:50:36.374Z,31.00
2019-02-21T01:00:48.867Z,25.93
2019-02-21T01:03:19.257Z,32.37
2019-02-21T01:05:49.306Z,26.10
2019-02-21T01:08:45.798Z,26.67
2019-02-21T01:11:24.667Z,24.73
2019-02-21T01:13:57.281Z,28.07
2019-02-21T01:16:33.995Z,28.20
2019-02-21T01:19:11.068Z,30.13
2019-02-21T01:21:47.619Z,26.10
2019-02-21T01:24:47.122Z,26.67
2019-02-21T01:27:26.030Z,32.13
2019-02-21T01:29:56.449Z,28.73
2019-02-21T01:32:26.656Z,30.80
2019-02-21T01:34:56.455Z,31.73
2019-02-21T01:37:26.414Z,27.43
2019-02-21T01:39:56.230Z,29.70
2019-02-21T01:42:27.147Z,28.80
2019-02-21T01:44:57.224Z,32.50
2019-02-21T01:47:27.029Z,30.73
2019-02-21T01:49:56.884Z,26.70
2019-02-21T01:52:53.408Z,26.47
2019-02-21T01:55:31.632Z,26.30
2019-02-21T01:58:04.131Z,26.53
2019-02-21T02:00:35.786Z,30.23
2019-02-21T02:03:07.530Z,23.60
2019-02-21T02:05:39.039Z,32.57
2019-02-21T02:08:13.924Z,25.67
2019-02-21T02:10:45.226Z,26.50
2019-02-21T02:13:25.641Z,28.67
2019-02-21T02:17:39.674Z,28.67
2019-02-21T02:19:32.999Z,31.03
2019-02-21T02:22:13.917Z,24.60
2019-02-21T02:24:44.017Z,27.33
2019-02-21T02:27:14.496Z,23.97
2019-02-21T02:29:44.313Z,32.30
2019-02-21T02:32:14.354Z,25.27
2019-02-21T02:34:44.614Z,30.10
2019-02-21T02:37:15.176Z,26.97
2019-02-21T02:39:45.311Z,31.63
2019-02-21T02:42:15.139Z,30.60
2019-02-21T02:44:45.089Z,27.53
2019-02-21T02:47:15.177Z,31.57
2019-02-21T02:50:14.271Z,24.80
2019-02-21T02:53:16.742Z,26.63
2019-02-21T02:56:47.812Z,32.53
2019-02-21T03:01:49.906Z,26.93
2019-02-21T03:07:40.882Z,34.17
2019-02-21T03:10:41.308Z,29.97
2019-02-21T03:17:24.355Z,27.67
2019-02-21T03:20:32.773Z,28.77
2019-02-21T03:27:41.505Z,26.57
2019-02-21T03:30:12.912Z,33.20
2019-02-21T03:33:30.392Z,31.00
2019-02-21T03:36:13.704Z,27.40
2019-02-21T03:39:24.739Z,32.40
2019-02-21T03:41:44.195Z,35.87
2019-02-21T03:44:36.137Z,28.73
2019-02-21T03:47:26.694Z,28.07
2019-02-21T03:49:52.942Z,28.63
2019-02-21T03:52:22.882Z,23.27
2019-02-21T03:54:52.772Z,26.10
2019-02-21T03:57:22.602Z,30.67
2019-02-21T03:59:53.200Z,29.20
2019-02-21T04:02:23.339Z,27.27
2019-02-21T04:04:53.461Z,28.40
2019-02-21T04:07:23.624Z,26.23
2019-02-21T04:09:53.899Z,29.53
2019-02-21T04:12:23.860Z,36.87
2019-02-21T04:14:53.842Z,32.33
2019-02-21T04:17:23.919Z,32.37
2019-02-21T04:21:24.488Z,28.57
2019-02-21T04:24:25.627Z,32.03
2019-02-21T04:27:40.196Z,32.53
2019-02-21T04:34:19.203Z,29.87
2019-02-21T04:40:40.913Z,28.37
2019-02-21T04:43:44.664Z,30.53
2019-02-21T04:46:58.472Z,27.57
2019-02-21T04:49:46.012Z,27.63
2019-02-21T04:52:35.045Z,29.60
2019-02-21T04:55:26.044Z,28.27
2019-02-21T04:58:16.762Z,29.87
2019-02-21T05:01:00.958Z,27.47
2019-02-21T05:03:58.583Z,30.97
2019-02-21T05:06:45.081Z,38.73
2019-02-21T05:09:33.358Z,32.03
2019-02-21T05:12:48.328Z,28.73
2019-02-21T05:15:44.250Z,30.60
2019-02-21T05:19:23.549Z,29.10
2019-02-21T05:21:55.744Z,25.77
2019-02-21T05:24:39.813Z,30.63
2019-02-21T05:28:00.471Z,31.23
2019-02-21T05:30:56.538Z,30.27
2019-02-21T05:34:03.762Z,27.93
2019-02-21T05:37:10.400Z,28.63
2019-02-21T05:40:17.048Z,28.60
2019-02-21T05:44:08.423Z,31.13
2019-02-21T05:47:19.320Z,31.37
2019-02-21T05:50:53.309Z,27.67
2019-02-21T05:57:19.026Z,31.93
2019-02-21T06:15:46.820Z,25.83
2019-02-21T06:21:54.724Z,28.27
2019-02-21T06:25:22.746Z,32.87
2019-02-21T06:31:31.509Z,32.83
2019-02-21T06:34:01.595Z,34.63
2019-02-21T06:36:31.419Z,28.03
2019-02-21T06:39:01.875Z,36.37
2019-02-21T06:41:31.749Z,38.70
2019-02-21T06:44:02.050Z,30.27
2019-02-21T06:46:32.042Z,35.50
2019-02-21T06:49:32.638Z,35.40
2019-02-21T06:52:00.013Z,32.07
2019-02-21T06:54:35.816Z,36.50
2019-02-21T06:57:11.605Z,43.67
2019-02-21T07:00:03.276Z,31.97
2019-02-21T07:06:31.798Z,30.77
2019-02-21T07:09:50.369Z,38.07
2019-02-21T07:13:26.604Z,34.80
2019-02-21T07:16:25.026Z,32.07
2019-02-21T07:22:17.743Z,33.73
2019-02-21T07:24:58.580Z,32.57
2019-02-21T07:27:43.719Z,36.80
2019-02-21T07:30:20.130Z,37.83
2019-02-21T07:33:52.468Z,36.03
2019-02-21T07:36:41.205Z,35.77
2019-02-21T07:40:06.537Z,34.60
2019-02-21T07:43:26.738Z,39.50
2019-02-21T07:46:09.789Z,39.53
2019-02-21T07:49:20.895Z,36.10
2019-02-21T07:56:00.959Z,33.50
2019-02-21T07:59:16.843Z,36.70
2019-02-21T08:01:20.650Z,41.33
2019-02-21T08:02:23.554Z,37.33
2019-02-21T08:05:48.546Z,34.37
2019-02-21T08:08:40.004Z,37.80
2019-02-21T08:12:27.968Z,35.70
2019-02-21T08:14:52.000Z,37.53
2019-02-21T08:17:23.662Z,32.23
2019-02-21T08:19:53.911Z,41.80
2019-02-21T08:22:24.337Z,42.03
2019-02-21T08:24:56.529Z,53.37
2019-02-21T08:28:06.439Z,58.43
2019-02-21T08:30:34.457Z,43.90
2019-02-21T08:37:02.369Z,42.47
2019-02-21T08:43:39.307Z,47.60
2019-02-21T08:53:30.257Z,61.13
2019-02-21T09:00:57.583Z,39.27
2019-02-21T09:03:28.119Z,35.70
2019-02-21T09:05:57.991Z,40.10
2019-02-21T09:08:33.547Z,58.83
2019-02-21T09:10:59.973Z,41.17
2019-02-21T09:13:30.807Z,40.10
2019-02-21T09:16:00.716Z,57.63
2019-02-21T09:18:30.494Z,64.60
2019-02-21T09:21:01.101Z,40.90
2019-02-21T09:23:50.292Z,45.67
2019-02-21T09:26:28.115Z,42.47
2019-02-21T09:35:45.850Z,28.60
2019-02-21T09:38:42.405Z,32.87
2019-02-21T09:41:31.681Z,34.23
2019-02-21T09:49:31.066Z,38.83
2019-02-21T09:52:30.536Z,36.67
2019-02-21T09:55:53.602Z,31.23
2019-02-21T09:59:01.082Z,36.33
2019-02-21T10:01:43.079Z,33.30
2019-02-21T10:08:18.335Z,35.37
2019-02-21T10:11:21.577Z,32.43
2019-02-21T10:14:08.329Z,37.63
2019-02-21T10:16:52.955Z,38.20
2019-02-21T10:19:55.437Z,31.73
2019-02-21T10:23:06.235Z,33.60
2019-02-21T10:25:35.528Z,33.53
2019-02-21T10:28:36.709Z,35.23
2019-02-21T10:31:12.508Z,32.30
2019-02-21T10:36:53.920Z,29.80
2019-02-21T10:39:33.561Z,29.23
2019-02-21T10:42:20.208Z,34.87
2019-02-21T10:45:16.829Z,24.33
2019-02-21T10:48:03.192Z,35.30
2019-02-21T10:50:50.421Z,32.40
2019-02-21T10:53:38.438Z,29.30
2019-02-21T10:56:28.197Z,27.87
2019-02-21T10:59:06.643Z,27.00
2019-02-21T11:01:49.001Z,29.73
2019-02-21T11:04:23.131Z,29.80
2019-02-21T11:06:58.731Z,41.10
2019-02-21T11:09:28.328Z,65.00
2019-02-21T11:12:38.460Z,44.30
2019-02-21T11:15:11.124Z,31.60
2019-02-21T11:17:53.011Z,34.97
2019-02-21T11:21:22.208Z,65.87
2019-02-21T11:23:06.519Z,38.67
2019-02-21T11:25:39.251Z,41.40
2019-02-21T11:28:10.881Z,25.60
2019-02-21T11:30:45.141Z,35.20
2019-02-21T11:33:48.435Z,44.97
2019-02-21T11:36:26.551Z,28.10
2019-02-21T11:38:57.702Z,29.10
2019-02-21T11:41:41.743Z,34.70
2019-02-21T11:44:14.740Z,49.17
2019-02-21T11:46:50.334Z,35.80
2019-02-21T11:49:27.693Z,31.33
2019-02-21T11:52:10.260Z,26.60
2019-02-21T11:54:41.504Z,24.27
2019-02-21T11:57:23.772Z,35.00
2019-02-21T11:59:59.623Z,20.83
2019-02-21T12:02:39.066Z,20.17
2019-02-21T12:05:17.525Z,34.23
2019-02-21T12:07:52.270Z,31.70
2019-02-21T12:10:28.742Z,23.93
2019-02-21T12:13:04.413Z,22.63
2019-02-21T12:15:38.582Z,24.40
2019-02-21T12:18:16.277Z,25.90
2019-02-21T12:20:57.490Z,28.70
2019-02-21T12:23:38.764Z,31.77
2019-02-21T12:26:14.102Z,21.33
2019-02-21T12:28:51.635Z,19.83
2019-02-21T12:31:29.595Z,23.03
2019-02-21T12:34:11.299Z,24.93
2019-02-21T12:36:49.285Z,26.67
2019-02-21T12:39:33.707Z,29.00
2019-02-21T12:42:08.456Z,24.80
2019-02-21T12:44:47.768Z,25.70
2019-02-21T12:47:29.067Z,28.07
2019-02-21T12:50:00.331Z,27.67
2019-02-21T12:52:33.749Z,21.43
2019-02-21T12:55:09.918Z,23.93
2019-02-21T12:57:49.927Z,21.87
2019-02-21T13:00:20.888Z,22.80
2019-02-21T13:02:58.597Z,18.43
2019-02-21T13:05:40.046Z,17.87
2019-02-21T13:08:06.879Z,17.87
2019-02-21T13:10:56.318Z,18.37
2019-02-21T13:13:16.579Z,14.20
2019-02-21T13:15:47.542Z,13.30
2019-02-21T13:18:20.004Z,18.97
2019-02-21T13:20:50.407Z,17.00
2019-02-21T13:23:20.659Z,20.63
2019-02-21T13:26:03.934Z,22.10
2019-02-21T13:28:40.659Z,19.73
2019-02-21T13:31:14.282Z,17.73
2019-02-21T13:33:55.796Z,22.43
2019-02-21T13:36:27.139Z,22.47
2019-02-21T13:39:01.171Z,19.23
2019-02-21T13:41:32.166Z,15.07
2019-02-21T13:44:08.000Z,20.60
2019-02-21T13:46:41.540Z,18.07
2019-02-21T13:49:17.783Z,20.67
2019-02-21T13:51:48.833Z,18.33
2019-02-21T13:54:19.805Z,20.77
2019-02-21T13:56:51.393Z,21.87
2019-02-21T13:59:22.423Z,12.10
2019-02-21T14:01:55.782Z,13.73
2019-02-21T14:04:28.661Z,18.43
2019-02-21T14:07:01.302Z,17.57
2019-02-21T14:09:44.853Z,15.23
2019-02-21T14:12:13.671Z,12.57
2019-02-21T14:14:45.466Z,24.00
2019-02-21T14:17:18.062Z,19.60
2019-02-21T14:19:53.143Z,19.50
2019-02-21T14:22:27.564Z,15.43
2019-02-21T14:25:02.543Z,16.50
2019-02-21T14:27:37.669Z,18.00
2019-02-21T14:30:10.773Z,18.83
2019-02-21T14:32:41.657Z,18.00
2019-02-21T14:35:15.376Z,18.53
2019-02-21T14:37:50.455Z,18.63
2019-02-21T14:40:22.013Z,15.03
2019-02-21T14:42:55.962Z,19.30
2019-02-21T14:45:35.645Z,16.80
2019-02-21T14:48:06.947Z,15.67
2019-02-21T14:50:38.316Z,16.70
2019-02-21T14:53:14.396Z,12.53
2019-02-21T14:55:49.939Z,16.53
2019-02-21T14:58:21.564Z,17.30
2019-02-21T15:00:52.906Z,20.50
2019-02-21T15:03:25.343Z,17.63
2019-02-21T15:05:57.655Z,20.60
2019-02-21T15:08:29.055Z,16.33
2019-02-21T15:11:00.208Z,16.87
2019-02-21T15:13:39.597Z,17.77
2019-02-21T15:16:17.370Z,17.27
2019-02-21T15:18:50.817Z,14.37
2019-02-21T15:21:24.278Z,15.13
2019-02-21T15:23:56.856Z,12.10
2019-02-21T15:26:30.528Z,16.87
2019-02-21T15:29:04.237Z,15.83
2019-02-21T15:31:55.069Z,16.70
2019-02-21T15:34:50.527Z,16.00
2019-02-21T15:37:21.608Z,14.87
2019-02-21T15:39:52.490Z,13.27
2019-02-21T15:42:29.842Z,26.83
2019-02-21T15:45:05.761Z,12.50
2019-02-21T15:47:55.567Z,13.23
2019-02-21T15:50:26.619Z,13.80
2019-02-21T15:53:01.909Z,16.10
2019-02-21T15:58:32.189Z,15.27
2019-02-21T16:01:02.772Z,10.67
2019-02-21T16:04:12.259Z,15.10
2019-02-21T16:06:55.127Z,15.37
2019-02-21T16:10:06.928Z,17.63
2019-02-21T16:12:42.304Z,22.07
2019-02-21T16:15:35.240Z,17.93
2019-02-21T16:18:08.029Z,21.27
2019-02-21T16:20:38.281Z,24.07
2019-02-21T16:23:11.313Z,19.33
2019-02-21T16:25:53.450Z,16.63
2019-02-21T16:28:30.003Z,18.33
2019-02-21T16:31:07.400Z,17.63
2019-02-21T16:33:54.656Z,14.90
2019-02-21T16:36:28.258Z,17.13
2019-02-21T16:39:08.134Z,17.43
2019-02-21T16:41:51.652Z,23.57
2019-02-21T16:44:52.253Z,18.27
2019-02-21T16:47:41.293Z,18.90
2019-02-21T16:50:12.966Z,17.73
2019-02-21T16:52:43.167Z,23.43
2019-02-21T16:55:16.261Z,20.23
2019-02-21T16:57:46.784Z,24.83
2019-02-21T17:00:18.061Z,76.83
2019-02-21T17:02:48.422Z,48.57
2019-02-21T17:05:19.276Z,24.80
2019-02-21T17:07:49.678Z,25.03
2019-02-21T17:10:41.729Z,25.77
2019-02-21T17:13:23.089Z,156.33
2019-02-21T17:15:54.703Z,52.27
2019-02-21T17:18:31.306Z,61.47
2019-02-21T17:21:04.920Z,79.53
2019-02-21T17:23:39.877Z,74.10
2019-02-21T17:26:13.888Z,49.83
2019-02-21T17:28:46.810Z,41.43
2019-02-21T17:31:23.296Z,35.97
2019-02-21T17:34:01.926Z,57.03
2019-02-21T17:36:37.347Z,27.93
2019-02-21T17:39:15.325Z,31.20
2019-02-21T17:41:45.333Z,26.43
2019-02-21T17:44:15.555Z,26.13
2019-02-21T17:46:58.027Z,67.83
2019-02-21T17:49:28.234Z,35.67
2019-02-21T17:51:58.565Z,26.50
2019-02-21T17:54:32.916Z,21.87
2019-02-21T17:57:04.803Z,26.07
2019-02-21T17:59:36.008Z,23.90
2019-02-21T18:02:12.216Z,26.97
2019-02-21T18:04:45.870Z,28.70
2019-02-21T18:07:17.776Z,24.17
2019-02-21T18:09:48.151Z,24.30
2019-02-21T18:12:18.525Z,24.70
2019-02-21T18:14:55.751Z,22.80
2019-02-21T18:17:36.750Z,28.73
2019-02-21T18:20:08.829Z,25.37
2019-02-21T18:22:40.784Z,38.23
2019-02-21T18:25:34.951Z,20.17
2019-02-21T18:28:06.158Z,40.10
2019-02-21T18:30:37.258Z,22.37
2019-02-21T18:33:18.980Z,27.90
2019-02-21T18:35:50.404Z,22.43
2019-02-21T18:38:24.271Z,24.27
2019-02-21T18:40:55.170Z,43.47
2019-02-21T18:43:25.640Z,46.67
2019-02-21T18:45:57.705Z,52.13
2019-02-21T18:48:33.033Z,42.03
2019-02-21T18:51:24.889Z,38.00
2019-02-21T18:53:57.689Z,23.80
2019-02-21T18:56:29.504Z,33.83
2019-02-21T18:59:01.391Z,46.13
2019-02-21T19:01:33.542Z,30.00
2019-02-21T19:04:11.135Z,43.17
2019-02-21T19:06:45.931Z,30.07
2019-02-21T19:09:30.091Z,41.13
2019-02-21T19:12:14.226Z,42.23
2019-02-21T19:14:46.213Z,28.63
2019-02-21T19:17:18.662Z,39.17
2019-02-21T19:19:54.456Z,29.27
2019-02-21T19:22:30.782Z,33.33
2019-02-21T19:25:03.975Z,34.70
2019-02-21T19:27:39.456Z,29.93
2019-02-21T19:30:20.220Z,55.97
2019-02-21T19:32:59.426Z,30.67
2019-02-21T19:38:43.286Z,32.17
2019-02-21T19:41:14.374Z,39.87
2019-02-21T19:43:46.843Z,29.53
2019-02-21T19:51:38.899Z,35.90
2019-02-21T19:54:09.361Z,60.03
2019-02-21T19:56:39.911Z,74.10
2019-02-21T19:59:10.884Z,29.67
2019-02-21T20:01:41.665Z,29.13
2019-02-21T20:05:12.578Z,49.00
2019-02-21T20:07:47.246Z,34.13
2019-02-21T20:10:20.146Z,35.80
2019-02-21T20:12:53.248Z,30.17
2019-02-21T20:15:24.907Z,32.23
2019-02-21T20:18:02.856Z,27.83
2019-02-21T20:20:39.258Z,30.43
2019-02-21T20:23:12.798Z,32.30
2019-02-21T20:25:45.377Z,30.37
2019-02-21T20:28:24.779Z,32.47
2019-02-21T20:30:56.032Z,28.03
2019-02-21T20:33:28.938Z,31.83
2019-02-21T20:36:00.100Z,31.87
2019-02-21T20:38:33.348Z,31.27
2019-02-21T20:41:13.230Z,33.37
2019-02-21T20:43:46.435Z,30.57
2019-02-21T20:46:19.791Z,34.07
2019-02-21T20:48:54.257Z,36.90
2019-02-21T20:51:30.945Z,22.43
2019-02-21T20:54:03.256Z,40.00
2019-02-21T20:56:34.242Z,45.10
2019-02-21T20:59:06.372Z,46.47
2019-02-21T21:01:38.081Z,40.93
2019-02-21T21:04:11.828Z,39.40
2019-02-21T21:06:59.267Z,49.70
2019-02-21T21:09:29.401Z,45.57
2019-02-21T21:12:00.991Z,41.07
2019-02-21T21:14:31.201Z,28.57
2019-02-21T21:17:01.589Z,47.10
2019-02-21T21:19:31.694Z,47.43
2019-02-21T21:22:01.991Z,38.63
2019-02-21T21:24:33.985Z,35.90
2019-02-21T21:27:04.429Z,38.83
2019-02-21T21:29:48.788Z,46.73
2019-02-21T21:32:19.765Z,41.97
2019-02-21T21:34:50.881Z,43.03
2019-02-21T21:37:21.824Z,41.67
2019-02-21T21:39:52.079Z,57.23
2019-02-21T21:42:22.320Z,43.43
2019-02-21T21:44:56.883Z,45.50
2019-02-21T21:47:28.642Z,42.17
2019-02-21T21:50:01.141Z,38.97
2019-02-21T21:52:33.086Z,56.00
2019-02-21T21:55:03.813Z,43.60
2019-02-21T21:57:34.846Z,50.70
2019-02-21T22:00:06.947Z,44.60
2019-02-21T22:02:37.590Z,59.10
2019-02-21T22:05:08.844Z,47.00
2019-02-21T22:07:39.651Z,52.10
2019-02-21T22:10:11.890Z,62.40
2019-02-21T22:12:42.808Z,52.27
2019-02-21T22:15:13.996Z,74.70
2019-02-21T22:17:45.006Z,38.20
2019-02-21T22:20:16.914Z,59.53
2019-02-21T22:22:47.697Z,42.07
2019-02-21T22:25:18.384Z,50.00
2019-02-21T22:27:50.406Z,56.07
2019-02-21T22:30:23.762Z,39.50
2019-02-21T22:32:54.424Z,49.13
2019-02-21T22:35:24.959Z,64.37
2019-02-21T22:37:56.032Z,38.90
2019-02-21T22:40:26.886Z,57.17
2019-02-21T22:42:57.537Z,59.40
2019-02-21T22:45:28.867Z,55.23
2019-02-21T22:47:59.617Z,57.93
2019-02-21T22:50:32.437Z,54.97
2019-02-21T22:53:03.756Z,58.90
2019-02-21T22:55:34.627Z,48.53
2019-02-21T22:58:05.755Z,64.80
2019-02-21T23:01:09.683Z,65.93
2019-02-21T23:03:52.129Z,73.93
2019-02-21T23:06:43.679Z,55.80
2019-02-21T23:09:27.845Z,59.60
2019-02-21T23:11:58.354Z,72.47
2019-02-21T23:14:29.688Z,79.00
2019-02-21T23:17:00.409Z,88.80
2019-02-21T23:19:31.050Z,78.63
2019-02-21T23:22:01.855Z,69.20
2019-02-21T23:24:32.521Z,65.33
2019-02-21T23:27:03.222Z,96.10
2019-02-21T23:29:34.554Z,46.27
2019-02-21T23:32:05.548Z,58.90
2019-02-21T23:34:41.242Z,79.83
2019-02-21T23:37:12.522Z,86.80
2019-02-21T23:39:43.218Z,72.30
2019-02-21T23:42:14.316Z,77.83
2019-02-21T23:44:45.042Z,74.80
2019-02-21T23:47:15.742Z,73.70
2019-02-21T23:49:46.373Z,82.67
2019-02-21T23:52:17.651Z,70.80
2019-02-21T23:54:48.542Z,73.27
2019-02-21T23:57:19.511Z,74.43
2019-02-21T23:59:50.231Z,62.53
